Naples Municipal Airport
KAPF : rendu visible

Aérodrome :











RETROUVEZ-NOUS SUR...

 
LOGIN :

S'inscrire | Disclaimer

   EN    FR    IT 

 









Légende :    VFR   VFR Marginal   IFR   IFR Intensif   IFR Très Intensif
Visi : 
Plafond : 
>= 8 km
>= 3000ft
5 à 8 km
1000 à 3000 ft
1500m à 5 km
500 à 1000 ft
800 à 1500m
200 à 500 ft
< 800m
< 200 ft
Symboles :   Orages  Brouillard  Fortes neiges  Fortes précipitations  Vent > 20 kt






- Altitude de l'aérodrome : 8 ft


KAPF - Naples Municipal

DERNIER METAR :
  • 260316Z AUTO 06007KT 8SM FEW004 BKN034 OVC044 26/26 A2986 RMK AO2 T02560256 $

METARs EXPIRÉS :
  • 260253Z AUTO 09005KT 10SM FEW014 BKN034 27/26 A2986 RMK AO2 SLP110 60000 T02670256 53015 $
  • 260153Z AUTO 24004KT 10SM FEW024 BKN042 27/26 A2984 RMK AO2 SLP102 T02670261 $
  • 260053Z 00000KT 10SM SCT020 OVC038 27/ A2983 RMK AO2 RAB15E31 SLP099 P0000 T0267 $

TAF KAPF
Valide du 26 à 03h jusqu'au 27 à 00h UTC


260252Z 2603/2624 24006KT P6SM VCSH SCT030 BKN050
FM261400 20011KT 6SM RA VCSH FEW015 SCT025 BKN035
FIR KZMA / Amérique du Nord



MET'MAP, la Météo Aéronautique d'un coup d'oeil ! - Copyright ORBIFLY Décembre 2007 - Disclaimer

ORBIFLY MET'MAP TEAM :

Programmation & Développement : Alexandra Zaïnal
Sur une idée originale de : Baudouin d'Aumeries
Assistance à la programmation : Marc-Olivier Méhu
Soutien technique & logistique : Manuel Goepfert

Contact : metmap@orbifly.com




SOURCES & CREDITS :

   NOAA       Earth
Advisory